sensor_id;sensor_type;location;lat;lon;timestamp;P1;durP1;ratioP1;P2;durP2;ratioP2
61756;SDS011;57225;61.460;24.060;2024-02-23T00:02:29;2.83;;;1.92;;
61756;SDS011;57225;61.460;24.060;2024-02-23T00:05:14;2.28;;;1.80;;
61756;SDS011;57225;61.460;24.060;2024-02-23T00:07:58;2.67;;;1.85;;
61756;SDS011;57225;61.460;24.060;2024-02-23T00:10:43;3.08;;;1.88;;
61756;SDS011;57225;61.460;24.060;2024-02-23T00:13:27;2.83;;;1.90;;
61756;SDS011;57225;61.460;24.060;2024-02-23T00:16:12;3.22;;;2.15;;
61756;SDS011;57225;61.460;24.060;2024-02-23T00:18:56;3.13;;;1.80;;
61756;SDS011;57225;61.460;24.060;2024-02-23T00:21:41;2.72;;;1.70;;
61756;SDS011;57225;61.460;24.060;2024-02-23T00:24:26;3.15;;;1.92;;
61756;SDS011;57225;61.460;24.060;2024-02-23T00:27:10;2.58;;;1.55;;
61756;SDS011;57225;61.460;24.060;2024-02-23T00:29:55;2.60;;;1.90;;
61756;SDS011;57225;61.460;24.060;2024-02-23T00:32:39;3.05;;;1.67;;
61756;SDS011;57225;61.460;24.060;2024-02-23T00:35:24;3.03;;;2.15;;
61756;SDS011;57225;61.460;24.060;2024-02-23T00:38:08;3.28;;;2.38;;
61756;SDS011;57225;61.460;24.060;2024-02-23T00:40:53;3.33;;;1.88;;
61756;SDS011;57225;61.460;24.060;2024-02-23T00:43:38;3.28;;;1.90;;
61756;SDS011;57225;61.460;24.060;2024-02-23T00:46:23;2.90;;;2.00;;
61756;SDS011;57225;61.460;24.060;2024-02-23T00:49:07;4.15;;;2.13;;
61756;SDS011;57225;61.460;24.060;2024-02-23T00:51:52;2.88;;;2.03;;
61756;SDS011;57225;61.460;24.060;2024-02-23T00:54:36;3.13;;;2.17;;
61756;SDS011;57225;61.460;24.060;2024-02-23T00:57:21;3.67;;;2.58;;
61756;SDS011;57225;61.460;24.060;2024-02-23T01:00:11;3.22;;;2.30;;
61756;SDS011;57225;61.460;24.060;2024-02-23T01:02:56;6.60;;;2.80;;
61756;SDS011;57225;61.460;24.060;2024-02-23T01:05:43;4.15;;;2.88;;
61756;SDS011;57225;61.460;24.060;2024-02-23T01:08:27;4.00;;;2.45;;
61756;SDS011;57225;61.460;24.060;2024-02-23T01:11:12;6.93;;;3.20;;
61756;SDS011;57225;61.460;24.060;2024-02-23T01:13:56;4.80;;;3.20;;
61756;SDS011;57225;61.460;24.060;2024-02-23T01:16:41;5.15;;;3.00;;
61756;SDS011;57225;61.460;24.060;2024-02-23T01:19:25;6.10;;;3.10;;
61756;SDS011;57225;61.460;24.060;2024-02-23T01:22:10;5.80;;;3.58;;
61756;SDS011;57225;61.460;24.060;2024-02-23T01:24:55;5.35;;;3.28;;
61756;SDS011;57225;61.460;24.060;2024-02-23T01:27:39;5.72;;;3.75;;
61756;SDS011;57225;61.460;24.060;2024-02-23T01:30:24;5.75;;;3.45;;
61756;SDS011;57225;61.460;24.060;2024-02-23T01:33:08;5.32;;;3.17;;
61756;SDS011;57225;61.460;24.060;2024-02-23T01:35:53;6.70;;;3.67;;
61756;SDS011;57225;61.460;24.060;2024-02-23T01:38:37;6.70;;;3.67;;
61756;SDS011;57225;61.460;24.060;2024-02-23T01:41:21;6.72;;;3.95;;
61756;SDS011;57225;61.460;24.060;2024-02-23T01:44:06;7.05;;;3.83;;
61756;SDS011;57225;61.460;24.060;2024-02-23T01:46:51;7.20;;;4.18;;
61756;SDS011;57225;61.460;24.060;2024-02-23T01:49:35;9.15;;;3.85;;
61756;SDS011;57225;61.460;24.060;2024-02-23T01:52:20;8.27;;;3.50;;
61756;SDS011;57225;61.460;24.060;2024-02-23T01:55:05;6.20;;;3.78;;
61756;SDS011;57225;61.460;24.060;2024-02-23T01:57:49;6.22;;;3.70;;
61756;SDS011;57225;61.460;24.060;2024-02-23T02:22:25;8.20;;;4.03;;
61756;SDS011;57225;61.460;24.060;2024-02-23T02:25:10;7.75;;;4.25;;
61756;SDS011;57225;61.460;24.060;2024-02-23T02:27:58;6.43;;;4.03;;
61756;SDS011;57225;61.460;24.060;2024-02-23T02:30:42;8.93;;;4.82;;
61756;SDS011;57225;61.460;24.060;2024-02-23T02:33:27;7.65;;;4.45;;
61756;SDS011;57225;61.460;24.060;2024-02-23T02:36:11;8.95;;;4.13;;
61756;SDS011;57225;61.460;24.060;2024-02-23T02:38:56;7.20;;;4.47;;
61756;SDS011;57225;61.460;24.060;2024-02-23T02:41:40;8.98;;;4.40;;
61756;SDS011;57225;61.460;24.060;2024-02-23T02:44:24;6.88;;;3.92;;
61756;SDS011;57225;61.460;24.060;2024-02-23T02:47:14;8.05;;;3.97;;
61756;SDS011;57225;61.460;24.060;2024-02-23T02:49:58;6.88;;;4.07;;
61756;SDS011;57225;61.460;24.060;2024-02-23T02:52:42;5.85;;;3.50;;
61756;SDS011;57225;61.460;24.060;2024-02-23T02:55:27;7.25;;;4.05;;
61756;SDS011;57225;61.460;24.060;2024-02-23T02:58:11;9.00;;;3.40;;
61756;SDS011;57225;61.460;24.060;2024-02-23T03:00:59;7.82;;;4.20;;
61756;SDS011;57225;61.460;24.060;2024-02-23T03:03:43;6.80;;;3.60;;
61756;SDS011;57225;61.460;24.060;2024-02-23T03:06:28;5.43;;;3.53;;
61756;SDS011;57225;61.460;24.060;2024-02-23T03:09:12;6.55;;;4.07;;
61756;SDS011;57225;61.460;24.060;2024-02-23T03:11:57;7.53;;;3.72;;
61756;SDS011;57225;61.460;24.060;2024-02-23T03:14:41;4.95;;;3.20;;
61756;SDS011;57225;61.460;24.060;2024-02-23T03:17:26;8.27;;;3.67;;
61756;SDS011;57225;61.460;24.060;2024-02-23T03:20:10;7.22;;;4.05;;
61756;SDS011;57225;61.460;24.060;2024-02-23T03:22:55;6.93;;;3.88;;
61756;SDS011;57225;61.460;24.060;2024-02-23T03:25:39;7.85;;;3.70;;
61756;SDS011;57225;61.460;24.060;2024-02-23T03:28:24;8.60;;;4.38;;
61756;SDS011;57225;61.460;24.060;2024-02-23T03:31:08;7.10;;;4.32;;
61756;SDS011;57225;61.460;24.060;2024-02-23T03:33:53;7.90;;;4.43;;
61756;SDS011;57225;61.460;24.060;2024-02-23T03:36:38;13.77;;;5.10;;
61756;SDS011;57225;61.460;24.060;2024-02-23T03:39:22;8.68;;;5.00;;
61756;SDS011;57225;61.460;24.060;2024-02-23T03:42:07;11.18;;;5.68;;
61756;SDS011;57225;61.460;24.060;2024-02-23T03:44:51;11.02;;;5.15;;
61756;SDS011;57225;61.460;24.060;2024-02-23T03:47:35;8.77;;;5.03;;
61756;SDS011;57225;61.460;24.060;2024-02-23T03:50:20;9.30;;;5.30;;
61756;SDS011;57225;61.460;24.060;2024-02-23T03:53:04;9.63;;;5.70;;
61756;SDS011;57225;61.460;24.060;2024-02-23T03:55:49;9.85;;;5.00;;
61756;SDS011;57225;61.460;24.060;2024-02-23T03:58:33;12.90;;;5.80;;
61756;SDS011;57225;61.460;24.060;2024-02-23T04:01:19;9.68;;;5.63;;
61756;SDS011;57225;61.460;24.060;2024-02-23T04:04:04;9.35;;;5.20;;
61756;SDS011;57225;61.460;24.060;2024-02-23T04:06:48;9.48;;;5.47;;
61756;SDS011;57225;61.460;24.060;2024-02-23T04:09:33;8.18;;;5.50;;
61756;SDS011;57225;61.460;24.060;2024-02-23T04:12:18;9.77;;;5.50;;
61756;SDS011;57225;61.460;24.060;2024-02-23T04:15:03;9.50;;;5.95;;
61756;SDS011;57225;61.460;24.060;2024-02-23T04:17:48;11.20;;;6.00;;
61756;SDS011;57225;61.460;24.060;2024-02-23T04:20:33;10.85;;;5.88;;
61756;SDS011;57225;61.460;24.060;2024-02-23T04:23:17;11.40;;;6.20;;
61756;SDS011;57225;61.460;24.060;2024-02-23T04:26:02;10.95;;;6.20;;
61756;SDS011;57225;61.460;24.060;2024-02-23T04:28:46;13.50;;;6.57;;
61756;SDS011;57225;61.460;24.060;2024-02-23T04:31:31;13.70;;;6.75;;
61756;SDS011;57225;61.460;24.060;2024-02-23T04:34:15;11.05;;;6.78;;
61756;SDS011;57225;61.460;24.060;2024-02-23T04:37:00;13.00;;;6.75;;
61756;SDS011;57225;61.460;24.060;2024-02-23T04:39:44;14.05;;;6.50;;
61756;SDS011;57225;61.460;24.060;2024-02-23T04:42:29;13.68;;;6.40;;
61756;SDS011;57225;61.460;24.060;2024-02-23T04:45:14;11.68;;;6.60;;
61756;SDS011;57225;61.460;24.060;2024-02-23T04:47:58;11.63;;;6.28;;
61756;SDS011;57225;61.460;24.060;2024-02-23T04:50:43;16.05;;;6.88;;
61756;SDS011;57225;61.460;24.060;2024-02-23T04:53:27;13.50;;;7.45;;
61756;SDS011;57225;61.460;24.060;2024-02-23T04:56:12;12.88;;;7.43;;
61756;SDS011;57225;61.460;24.060;2024-02-23T04:58:57;13.85;;;7.15;;
61756;SDS011;57225;61.460;24.060;2024-02-23T05:01:41;13.07;;;7.78;;
61756;SDS011;57225;61.460;24.060;2024-02-23T05:04:26;15.95;;;7.68;;
61756;SDS011;57225;61.460;24.060;2024-02-23T05:07:11;13.48;;;6.97;;
61756;SDS011;57225;61.460;24.060;2024-02-23T05:09:56;12.55;;;7.10;;
61756;SDS011;57225;61.460;24.060;2024-02-23T05:12:40;13.43;;;7.22;;
61756;SDS011;57225;61.460;24.060;2024-02-23T05:15:25;14.30;;;7.80;;
61756;SDS011;57225;61.460;24.060;2024-02-23T05:18:09;18.10;;;8.30;;
61756;SDS011;57225;61.460;24.060;2024-02-23T05:20:54;13.23;;;7.05;;
61756;SDS011;57225;61.460;24.060;2024-02-23T05:23:38;15.45;;;7.55;;
61756;SDS011;57225;61.460;24.060;2024-02-23T05:26:23;15.50;;;7.63;;
61756;SDS011;57225;61.460;24.060;2024-02-23T05:29:07;17.35;;;8.02;;
61756;SDS011;57225;61.460;24.060;2024-02-23T05:31:52;18.08;;;8.25;;
61756;SDS011;57225;61.460;24.060;2024-02-23T05:34:37;22.00;;;8.15;;
61756;SDS011;57225;61.460;24.060;2024-02-23T05:37:21;19.55;;;8.40;;
61756;SDS011;57225;61.460;24.060;2024-02-23T05:40:06;15.20;;;8.82;;
61756;SDS011;57225;61.460;24.060;2024-02-23T05:42:54;22.40;;;9.35;;
61756;SDS011;57225;61.460;24.060;2024-02-23T05:45:38;21.40;;;9.02;;
61756;SDS011;57225;61.460;24.060;2024-02-23T05:48:22;22.20;;;9.85;;
61756;SDS011;57225;61.460;24.060;2024-02-23T05:51:07;21.08;;;9.90;;
61756;SDS011;57225;61.460;24.060;2024-02-23T05:53:52;20.38;;;9.93;;
61756;SDS011;57225;61.460;24.060;2024-02-23T05:56:37;19.00;;;10.45;;
61756;SDS011;57225;61.460;24.060;2024-02-23T05:59:21;20.70;;;10.38;;
61756;SDS011;57225;61.460;24.060;2024-02-23T06:02:06;17.73;;;10.10;;
61756;SDS011;57225;61.460;24.060;2024-02-23T06:04:50;23.05;;;10.25;;
61756;SDS011;57225;61.460;24.060;2024-02-23T06:07:35;26.10;;;11.18;;
61756;SDS011;57225;61.460;24.060;2024-02-23T06:10:21;20.30;;;10.98;;
61756;SDS011;57225;61.460;24.060;2024-02-23T06:13:06;21.65;;;10.50;;
61756;SDS011;57225;61.460;24.060;2024-02-23T06:15:51;22.83;;;11.20;;
61756;SDS011;57225;61.460;24.060;2024-02-23T06:18:36;20.98;;;11.10;;
61756;SDS011;57225;61.460;24.060;2024-02-23T06:21:26;21.55;;;9.88;;
61756;SDS011;57225;61.460;24.060;2024-02-23T06:24:10;21.85;;;10.13;;
61756;SDS011;57225;61.460;24.060;2024-02-23T06:26:55;19.08;;;9.98;;
61756;SDS011;57225;61.460;24.060;2024-02-23T06:29:42;20.20;;;10.80;;
61756;SDS011;57225;61.460;24.060;2024-02-23T06:32:26;20.15;;;9.60;;
61756;SDS011;57225;61.460;24.060;2024-02-23T06:35:11;22.58;;;9.50;;
61756;SDS011;57225;61.460;24.060;2024-02-23T06:37:55;22.80;;;10.43;;
61756;SDS011;57225;61.460;24.060;2024-02-23T06:40:40;23.02;;;10.13;;
61756;SDS011;57225;61.460;24.060;2024-02-23T06:43:24;21.02;;;9.93;;
61756;SDS011;57225;61.460;24.060;2024-02-23T06:46:09;23.50;;;9.80;;
61756;SDS011;57225;61.460;24.060;2024-02-23T06:48:55;24.15;;;10.10;;
61756;SDS011;57225;61.460;24.060;2024-02-23T06:51:39;22.65;;;9.57;;
61756;SDS011;57225;61.460;24.060;2024-02-23T06:54:24;24.42;;;10.23;;
61756;SDS011;57225;61.460;24.060;2024-02-23T06:57:09;20.83;;;9.23;;
61756;SDS011;57225;61.460;24.060;2024-02-23T06:59:53;23.20;;;9.52;;
61756;SDS011;57225;61.460;24.060;2024-02-23T07:02:38;20.40;;;9.60;;
61756;SDS011;57225;61.460;24.060;2024-02-23T07:05:22;16.23;;;8.75;;
61756;SDS011;57225;61.460;24.060;2024-02-23T07:08:07;19.38;;;8.80;;
61756;SDS011;57225;61.460;24.060;2024-02-23T07:10:51;14.68;;;8.07;;
61756;SDS011;57225;61.460;24.060;2024-02-23T07:13:35;17.67;;;8.50;;
61756;SDS011;57225;61.460;24.060;2024-02-23T07:16:20;16.73;;;8.27;;
61756;SDS011;57225;61.460;24.060;2024-02-23T07:19:06;15.30;;;7.50;;
61756;SDS011;57225;61.460;24.060;2024-02-23T07:21:51;16.65;;;7.45;;
61756;SDS011;57225;61.460;24.060;2024-02-23T07:27:42;12.68;;;6.43;;
61756;SDS011;57225;61.460;24.060;2024-02-23T07:30:27;12.43;;;6.57;;
61756;SDS011;57225;61.460;24.060;2024-02-23T07:33:11;14.93;;;6.88;;
61756;SDS011;57225;61.460;24.060;2024-02-23T07:35:55;13.65;;;6.25;;
61756;SDS011;57225;61.460;24.060;2024-02-23T07:38:40;10.02;;;5.68;;
61756;SDS011;57225;61.460;24.060;2024-02-23T07:41:25;13.65;;;6.32;;
61756;SDS011;57225;61.460;24.060;2024-02-23T07:44:09;11.82;;;6.10;;
61756;SDS011;57225;61.460;24.060;2024-02-23T07:46:54;10.73;;;5.85;;
61756;SDS011;57225;61.460;24.060;2024-02-23T07:49:39;12.50;;;6.07;;
61756;SDS011;57225;61.460;24.060;2024-02-23T07:52:26;11.57;;;5.85;;
61756;SDS011;57225;61.460;24.060;2024-02-23T07:55:11;13.57;;;6.75;;
61756;SDS011;57225;61.460;24.060;2024-02-23T07:57:56;16.50;;;6.85;;
61756;SDS011;57225;61.460;24.060;2024-02-23T08:00:44;11.90;;;6.75;;
61756;SDS011;57225;61.460;24.060;2024-02-23T08:03:30;14.30;;;6.75;;
61756;SDS011;57225;61.460;24.060;2024-02-23T08:06:15;12.73;;;6.20;;
61756;SDS011;57225;61.460;24.060;2024-02-23T08:08:59;14.07;;;7.30;;
61756;SDS011;57225;61.460;24.060;2024-02-23T08:11:44;14.15;;;7.05;;
61756;SDS011;57225;61.460;24.060;2024-02-23T08:14:30;14.25;;;7.00;;
61756;SDS011;57225;61.460;24.060;2024-02-23T08:17:14;11.65;;;6.43;;
61756;SDS011;57225;61.460;24.060;2024-02-23T08:19:59;12.93;;;6.32;;
61756;SDS011;57225;61.460;24.060;2024-02-23T08:22:43;10.48;;;6.20;;
61756;SDS011;57225;61.460;24.060;2024-02-23T08:25:28;9.38;;;5.15;;
61756;SDS011;57225;61.460;24.060;2024-02-23T08:28:12;10.23;;;5.47;;
61756;SDS011;57225;61.460;24.060;2024-02-23T08:30:57;9.00;;;5.15;;
61756;SDS011;57225;61.460;24.060;2024-02-23T08:33:42;11.25;;;5.25;;
61756;SDS011;57225;61.460;24.060;2024-02-23T08:36:26;8.32;;;4.40;;
61756;SDS011;57225;61.460;24.060;2024-02-23T08:39:10;13.80;;;5.38;;
61756;SDS011;57225;61.460;24.060;2024-02-23T08:41:55;8.65;;;4.25;;
61756;SDS011;57225;61.460;24.060;2024-02-23T08:44:39;9.00;;;4.75;;
61756;SDS011;57225;61.460;24.060;2024-02-23T08:47:24;8.93;;;4.50;;
61756;SDS011;57225;61.460;24.060;2024-02-23T08:50:11;7.45;;;3.20;;
61756;SDS011;57225;61.460;24.060;2024-02-23T08:52:56;5.82;;;3.20;;
61756;SDS011;57225;61.460;24.060;2024-02-23T08:55:40;6.07;;;3.22;;
61756;SDS011;57225;61.460;24.060;2024-02-23T08:58:25;7.20;;;2.95;;
61756;SDS011;57225;61.460;24.060;2024-02-23T09:01:09;4.32;;;2.75;;
61756;SDS011;57225;61.460;24.060;2024-02-23T09:03:54;6.63;;;2.83;;
61756;SDS011;57225;61.460;24.060;2024-02-23T09:06:38;4.07;;;2.33;;
61756;SDS011;57225;61.460;24.060;2024-02-23T09:09:23;8.18;;;2.17;;
61756;SDS011;57225;61.460;24.060;2024-02-23T09:12:09;4.00;;;2.50;;
61756;SDS011;57225;61.460;24.060;2024-02-23T09:14:54;3.35;;;2.10;;
61756;SDS011;57225;61.460;24.060;2024-02-23T09:17:41;3.38;;;2.20;;
61756;SDS011;57225;61.460;24.060;2024-02-23T09:20:26;5.70;;;2.53;;
61756;SDS011;57225;61.460;24.060;2024-02-23T09:23:10;6.13;;;2.45;;
61756;SDS011;57225;61.460;24.060;2024-02-23T09:25:55;5.10;;;2.17;;
61756;SDS011;57225;61.460;24.060;2024-02-23T09:28:40;4.43;;;2.22;;
61756;SDS011;57225;61.460;24.060;2024-02-23T09:31:28;6.18;;;2.60;;
61756;SDS011;57225;61.460;24.060;2024-02-23T09:34:14;3.13;;;2.13;;
61756;SDS011;57225;61.460;24.060;2024-02-23T09:36:58;3.33;;;2.45;;
61756;SDS011;57225;61.460;24.060;2024-02-23T09:39:43;3.00;;;2.05;;
61756;SDS011;57225;61.460;24.060;2024-02-23T09:42:28;5.53;;;2.17;;
61756;SDS011;57225;61.460;24.060;2024-02-23T09:45:15;5.72;;;2.38;;
61756;SDS011;57225;61.460;24.060;2024-02-23T09:48:01;3.70;;;2.40;;
61756;SDS011;57225;61.460;24.060;2024-02-23T09:50:47;5.13;;;2.40;;
61756;SDS011;57225;61.460;24.060;2024-02-23T09:53:32;3.42;;;2.30;;
61756;SDS011;57225;61.460;24.060;2024-02-23T09:56:21;3.88;;;2.13;;
61756;SDS011;57225;61.460;24.060;2024-02-23T09:59:10;5.53;;;2.20;;
61756;SDS011;57225;61.460;24.060;2024-02-23T10:01:56;3.83;;;2.15;;
61756;SDS011;57225;61.460;24.060;2024-02-23T10:04:41;3.38;;;2.25;;
61756;SDS011;57225;61.460;24.060;2024-02-23T10:07:29;3.88;;;2.03;;
61756;SDS011;57225;61.460;24.060;2024-02-23T10:10:14;4.00;;;2.47;;
61756;SDS011;57225;61.460;24.060;2024-02-23T10:12:59;5.13;;;2.30;;
61756;SDS011;57225;61.460;24.060;2024-02-23T10:15:43;4.38;;;2.40;;
61756;SDS011;57225;61.460;24.060;2024-02-23T10:18:28;4.28;;;2.03;;
61756;SDS011;57225;61.460;24.060;2024-02-23T10:21:12;3.53;;;1.92;;
61756;SDS011;57225;61.460;24.060;2024-02-23T10:23:56;5.40;;;2.15;;
61756;SDS011;57225;61.460;24.060;2024-02-23T10:26:41;3.50;;;2.15;;
61756;SDS011;57225;61.460;24.060;2024-02-23T10:29:26;3.47;;;2.17;;
61756;SDS011;57225;61.460;24.060;2024-02-23T10:32:12;3.15;;;1.90;;
61756;SDS011;57225;61.460;24.060;2024-02-23T10:35:00;3.70;;;2.15;;
61756;SDS011;57225;61.460;24.060;2024-02-23T10:37:48;3.53;;;2.13;;
61756;SDS011;57225;61.460;24.060;2024-02-23T10:40:35;4.13;;;2.35;;
61756;SDS011;57225;61.460;24.060;2024-02-23T10:43:36;4.13;;;2.28;;
61756;SDS011;57225;61.460;24.060;2024-02-23T10:46:26;6.05;;;1.90;;
61756;SDS011;57225;61.460;24.060;2024-02-23T10:49:12;3.75;;;2.05;;
61756;SDS011;57225;61.460;24.060;2024-02-23T10:51:59;2.47;;;1.83;;
61756;SDS011;57225;61.460;24.060;2024-02-23T10:54:45;3.95;;;2.30;;
61756;SDS011;57225;61.460;24.060;2024-02-23T10:57:30;6.70;;;3.05;;
61756;SDS011;57225;61.460;24.060;2024-02-23T11:00:18;4.18;;;2.28;;
61756;SDS011;57225;61.460;24.060;2024-02-23T11:06:29;5.25;;;2.30;;
61756;SDS011;57225;61.460;24.060;2024-02-23T11:09:20;3.47;;;2.30;;
61756;SDS011;57225;61.460;24.060;2024-02-23T11:12:05;4.85;;;2.60;;
61756;SDS011;57225;61.460;24.060;2024-02-23T11:14:49;4.03;;;2.60;;
61756;SDS011;57225;61.460;24.060;2024-02-23T11:17:35;7.05;;;3.03;;
61756;SDS011;57225;61.460;24.060;2024-02-23T11:20:23;4.65;;;2.95;;
61756;SDS011;57225;61.460;24.060;2024-02-23T11:23:15;5.70;;;3.00;;
61756;SDS011;57225;61.460;24.060;2024-02-23T11:28:48;5.10;;;3.00;;
61756;SDS011;57225;61.460;24.060;2024-02-23T11:31:33;5.40;;;3.13;;
61756;SDS011;57225;61.460;24.060;2024-02-23T11:34:21;6.43;;;3.55;;
61756;SDS011;57225;61.460;24.060;2024-02-23T11:37:11;7.82;;;3.17;;
61756;SDS011;57225;61.460;24.060;2024-02-23T11:39:55;5.93;;;3.50;;
61756;SDS011;57225;61.460;24.060;2024-02-23T11:42:41;7.55;;;3.92;;
61756;SDS011;57225;61.460;24.060;2024-02-23T11:45:30;6.80;;;4.00;;
61756;SDS011;57225;61.460;24.060;2024-02-23T11:48:15;7.40;;;3.70;;
61756;SDS011;57225;61.460;24.060;2024-02-23T11:50:59;6.70;;;4.00;;
61756;SDS011;57225;61.460;24.060;2024-02-23T11:53:44;8.18;;;4.10;;
61756;SDS011;57225;61.460;24.060;2024-02-23T11:56:30;8.50;;;4.28;;
61756;SDS011;57225;61.460;24.060;2024-02-23T11:59:14;11.10;;;4.10;;
61756;SDS011;57225;61.460;24.060;2024-02-23T12:01:59;7.30;;;3.97;;
61756;SDS011;57225;61.460;24.060;2024-02-23T12:04:44;10.18;;;4.07;;
61756;SDS011;57225;61.460;24.060;2024-02-23T12:07:29;8.10;;;3.70;;
61756;SDS011;57225;61.460;24.060;2024-02-23T12:10:14;7.30;;;4.40;;
61756;SDS011;57225;61.460;24.060;2024-02-23T12:12:58;8.65;;;4.30;;
61756;SDS011;57225;61.460;24.060;2024-02-23T12:15:43;8.68;;;4.68;;
61756;SDS011;57225;61.460;24.060;2024-02-23T12:18:27;6.45;;;4.18;;
61756;SDS011;57225;61.460;24.060;2024-02-23T12:21:15;9.63;;;4.47;;
61756;SDS011;57225;61.460;24.060;2024-02-23T12:24:04;7.38;;;4.30;;
61756;SDS011;57225;61.460;24.060;2024-02-23T12:26:55;8.25;;;4.80;;
61756;SDS011;57225;61.460;24.060;2024-02-23T12:29:39;9.27;;;4.85;;
61756;SDS011;57225;61.460;24.060;2024-02-23T12:32:24;10.30;;;4.47;;
61756;SDS011;57225;61.460;24.060;2024-02-23T12:35:12;9.75;;;4.90;;
61756;SDS011;57225;61.460;24.060;2024-02-23T12:37:56;10.10;;;5.47;;
61756;SDS011;57225;61.460;24.060;2024-02-23T12:40:41;11.80;;;4.85;;
61756;SDS011;57225;61.460;24.060;2024-02-23T12:43:25;11.60;;;5.05;;
61756;SDS011;57225;61.460;24.060;2024-02-23T12:46:10;12.27;;;5.38;;
61756;SDS011;57225;61.460;24.060;2024-02-23T12:48:57;11.05;;;5.03;;
61756;SDS011;57225;61.460;24.060;2024-02-23T12:51:42;10.20;;;5.07;;
61756;SDS011;57225;61.460;24.060;2024-02-23T12:54:27;8.48;;;4.85;;
61756;SDS011;57225;61.460;24.060;2024-02-23T12:57:11;9.30;;;5.50;;
61756;SDS011;57225;61.460;24.060;2024-02-23T12:59:56;11.88;;;5.75;;
61756;SDS011;57225;61.460;24.060;2024-02-23T13:02:40;9.45;;;5.15;;
61756;SDS011;57225;61.460;24.060;2024-02-23T13:05:25;13.35;;;5.78;;
61756;SDS011;57225;61.460;24.060;2024-02-23T13:08:09;11.45;;;5.85;;
61756;SDS011;57225;61.460;24.060;2024-02-23T13:10:54;13.43;;;6.30;;
61756;SDS011;57225;61.460;24.060;2024-02-23T13:13:38;12.98;;;6.45;;
61756;SDS011;57225;61.460;24.060;2024-02-23T13:16:23;13.85;;;6.13;;
61756;SDS011;57225;61.460;24.060;2024-02-23T13:19:08;14.18;;;6.70;;
61756;SDS011;57225;61.460;24.060;2024-02-23T13:21:53;11.10;;;6.43;;
61756;SDS011;57225;61.460;24.060;2024-02-23T13:24:46;15.13;;;7.07;;
61756;SDS011;57225;61.460;24.060;2024-02-23T13:27:43;12.27;;;6.65;;
61756;SDS011;57225;61.460;24.060;2024-02-23T13:30:28;11.45;;;6.60;;
61756;SDS011;57225;61.460;24.060;2024-02-23T13:33:12;16.65;;;7.25;;
61756;SDS011;57225;61.460;24.060;2024-02-23T13:35:56;14.23;;;6.60;;
61756;SDS011;57225;61.460;24.060;2024-02-23T13:38:41;12.88;;;7.40;;
61756;SDS011;57225;61.460;24.060;2024-02-23T13:41:25;14.65;;;6.60;;
61756;SDS011;57225;61.460;24.060;2024-02-23T13:44:09;12.15;;;7.15;;
61756;SDS011;57225;61.460;24.060;2024-02-23T13:46:54;14.30;;;7.45;;
61756;SDS011;57225;61.460;24.060;2024-02-23T13:49:41;13.05;;;7.03;;
61756;SDS011;57225;61.460;24.060;2024-02-23T13:52:25;12.02;;;6.70;;
61756;SDS011;57225;61.460;24.060;2024-02-23T13:55:10;18.08;;;6.95;;
61756;SDS011;57225;61.460;24.060;2024-02-23T13:57:55;13.80;;;6.88;;
61756;SDS011;57225;61.460;24.060;2024-02-23T14:00:39;13.73;;;6.38;;
61756;SDS011;57225;61.460;24.060;2024-02-23T14:03:24;14.77;;;7.30;;
61756;SDS011;57225;61.460;24.060;2024-02-23T14:06:08;15.10;;;7.00;;
61756;SDS011;57225;61.460;24.060;2024-02-23T14:08:53;13.77;;;7.05;;
61756;SDS011;57225;61.460;24.060;2024-02-23T14:11:37;11.13;;;6.90;;
61756;SDS011;57225;61.460;24.060;2024-02-23T14:14:23;12.73;;;6.78;;
61756;SDS011;57225;61.460;24.060;2024-02-23T14:17:08;15.52;;;6.78;;
61756;SDS011;57225;61.460;24.060;2024-02-23T14:19:53;14.25;;;7.15;;
61756;SDS011;57225;61.460;24.060;2024-02-23T14:22:37;12.00;;;6.55;;
61756;SDS011;57225;61.460;24.060;2024-02-23T14:25:21;16.20;;;7.07;;
61756;SDS011;57225;61.460;24.060;2024-02-23T14:28:06;11.57;;;6.72;;
61756;SDS011;57225;61.460;24.060;2024-02-23T14:30:51;13.40;;;7.35;;
61756;SDS011;57225;61.460;24.060;2024-02-23T14:33:36;14.48;;;7.05;;
61756;SDS011;57225;61.460;24.060;2024-02-23T14:36:20;13.38;;;7.50;;
61756;SDS011;57225;61.460;24.060;2024-02-23T14:39:05;13.73;;;7.43;;
61756;SDS011;57225;61.460;24.060;2024-02-23T14:41:50;15.50;;;8.00;;
61756;SDS011;57225;61.460;24.060;2024-02-23T14:44:35;15.05;;;7.63;;
61756;SDS011;57225;61.460;24.060;2024-02-23T14:47:19;14.32;;;7.53;;
61756;SDS011;57225;61.460;24.060;2024-02-23T14:50:04;14.18;;;7.78;;
61756;SDS011;57225;61.460;24.060;2024-02-23T14:52:48;17.30;;;8.55;;
61756;SDS011;57225;61.460;24.060;2024-02-23T14:55:33;13.73;;;7.97;;
61756;SDS011;57225;61.460;24.060;2024-02-23T14:58:18;15.40;;;7.65;;
61756;SDS011;57225;61.460;24.060;2024-02-23T15:01:03;17.40;;;8.30;;
61756;SDS011;57225;61.460;24.060;2024-02-23T15:03:47;15.13;;;8.30;;
61756;SDS011;57225;61.460;24.060;2024-02-23T15:06:32;15.13;;;8.52;;
61756;SDS011;57225;61.460;24.060;2024-02-23T15:09:16;16.15;;;8.15;;
61756;SDS011;57225;61.460;24.060;2024-02-23T15:12:01;16.50;;;8.20;;
61756;SDS011;57225;61.460;24.060;2024-02-23T15:14:45;12.32;;;7.13;;
61756;SDS011;57225;61.460;24.060;2024-02-23T15:17:30;14.68;;;7.90;;
61756;SDS011;57225;61.460;24.060;2024-02-23T15:20:14;15.35;;;7.82;;
61756;SDS011;57225;61.460;24.060;2024-02-23T15:22:59;14.48;;;8.02;;
61756;SDS011;57225;61.460;24.060;2024-02-23T15:25:45;15.30;;;7.78;;
61756;SDS011;57225;61.460;24.060;2024-02-23T15:28:30;15.48;;;7.72;;
61756;SDS011;57225;61.460;24.060;2024-02-23T15:31:14;16.23;;;8.10;;
61756;SDS011;57225;61.460;24.060;2024-02-23T15:33:59;17.27;;;7.65;;
61756;SDS011;57225;61.460;24.060;2024-02-23T15:36:45;17.75;;;7.15;;
61756;SDS011;57225;61.460;24.060;2024-02-23T15:39:30;13.73;;;7.75;;
61756;SDS011;57225;61.460;24.060;2024-02-23T15:42:14;13.52;;;7.60;;
61756;SDS011;57225;61.460;24.060;2024-02-23T15:44:59;16.80;;;7.45;;
61756;SDS011;57225;61.460;24.060;2024-02-23T15:47:44;13.77;;;7.47;;
61756;SDS011;57225;61.460;24.060;2024-02-23T15:50:29;14.38;;;8.13;;
61756;SDS011;57225;61.460;24.060;2024-02-23T15:53:15;14.27;;;7.90;;
61756;SDS011;57225;61.460;24.060;2024-02-23T15:55:59;15.00;;;7.65;;
61756;SDS011;57225;61.460;24.060;2024-02-23T15:58:44;13.90;;;7.85;;
61756;SDS011;57225;61.460;24.060;2024-02-23T16:01:28;15.52;;;8.70;;
61756;SDS011;57225;61.460;24.060;2024-02-23T16:04:13;15.55;;;8.50;;
61756;SDS011;57225;61.460;24.060;2024-02-23T16:06:58;15.23;;;7.60;;
61756;SDS011;57225;61.460;24.060;2024-02-23T16:09:42;13.73;;;8.20;;
61756;SDS011;57225;61.460;24.060;2024-02-23T16:12:27;17.20;;;8.50;;
61756;SDS011;57225;61.460;24.060;2024-02-23T16:15:11;15.88;;;8.20;;
61756;SDS011;57225;61.460;24.060;2024-02-23T16:17:56;16.30;;;8.77;;
61756;SDS011;57225;61.460;24.060;2024-02-23T16:20:40;16.90;;;8.65;;
61756;SDS011;57225;61.460;24.060;2024-02-23T16:23:25;16.17;;;8.98;;
61756;SDS011;57225;61.460;24.060;2024-02-23T16:26:10;14.40;;;8.35;;
61756;SDS011;57225;61.460;24.060;2024-02-23T16:28:54;17.92;;;8.75;;
61756;SDS011;57225;61.460;24.060;2024-02-23T16:31:41;15.38;;;8.95;;
61756;SDS011;57225;61.460;24.060;2024-02-23T16:34:26;18.10;;;9.30;;
61756;SDS011;57225;61.460;24.060;2024-02-23T16:37:11;17.48;;;9.00;;
61756;SDS011;57225;61.460;24.060;2024-02-23T16:39:56;18.70;;;9.48;;
61756;SDS011;57225;61.460;24.060;2024-02-23T16:42:40;18.50;;;9.32;;